Time;durP1;ratioP1;P1;durP2;ratioP2;P2;SDS_P1;SDS_P2;PMS_P1;PMS_P2;Temp;Humidity;BMP_temperature;BMP_pressure;BME280_temperature;BME280_humidity;BME280_pressure;Samples;Min_cycle;Max_cycle;Signal;HPM_P1;HPM_P2
2022/05/26 00:02:05;;;;;;;21.35;7.13;;;14.70;99.90;;;;;;5067548;28;20452;-68
2022/05/26 00:04:31;;;;;;;24.75;7.00;;;14.70;99.90;;;;;;5067571;28;20382;-68
2022/05/26 00:06:58;;;;;;;28.85;7.38;;;14.70;99.90;;;;;;5068126;28;20044;-67
2022/05/26 00:09:24;;;;;;;23.55;7.13;;;14.70;99.90;;;;;;5064844;28;20056;-68
2022/05/26 00:11:50;;;;;;;25.13;7.65;;;14.70;99.90;;;;;;5067826;28;20469;-68
2022/05/26 00:14:15;;;;;;;25.17;7.38;;;14.70;99.90;;;;;;5065736;28;20055;-68
2022/05/26 00:16:44;;;;;;;24.52;7.22;;;14.70;99.90;;;;;;5032263;28;20509;-68
2022/05/26 00:19:12;;;;;;;28.70;8.02;;;14.60;99.90;;;;;;5066282;28;20036;-68
2022/05/26 00:21:38;;;;;;;26.77;7.57;;;14.60;99.90;;;;;;5067992;28;20400;-68
2022/05/26 00:24:04;;;;;;;23.77;7.55;;;14.60;99.90;;;;;;5066308;28;20055;-68
2022/05/26 00:26:29;;;;;;;27.23;7.65;;;14.60;99.90;;;;;;5067790;28;20429;-67
2022/05/26 00:28:55;;;;;;;25.10;6.82;;;15.40;99.90;;;;;;5065969;28;20090;-67
2022/05/26 00:31:21;;;;;;;29.48;7.88;;;14.60;99.90;;;;;;5069445;28;20052;-68
2022/05/26 00:33:47;;;;;;;30.33;7.60;;;14.60;99.90;;;;;;5069655;28;20457;-68
2022/05/26 00:36:14;;;;;;;28.33;8.38;;;14.50;99.90;;;;;;5071370;28;20112;-68
2022/05/26 00:38:41;;;;;;;30.30;8.43;;;15.10;99.90;;;;;;5070129;28;20106;-68
2022/05/26 00:41:10;;;;;;;31.38;8.27;;;14.50;99.90;;;;;;5071677;28;20102;-68
2022/05/26 00:43:41;;;;;;;28.58;8.30;;;14.50;99.90;;;;;;5069348;28;20080;-68
2022/05/26 00:46:21;;;;;;;28.70;7.75;;;14.50;99.90;;;;;;5050517;28;20066;-68
2022/05/26 00:48:51;;;;;;;30.75;8.43;;;14.40;99.90;;;;;;5055633;28;20464;-68
2022/05/26 00:51:23;;;;;;;34.67;8.38;;;14.50;99.90;;;;;;5052445;28;20151;-68
2022/05/26 00:53:55;;;;;;;33.03;8.43;;;14.90;99.90;;;;;;5069715;28;20044;-68
2022/05/26 00:56:33;;;;;;;31.77;8.30;;;14.50;99.90;;;;;;5069391;28;20074;-68
2022/05/26 00:59:06;;;;;;;30.58;8.45;;;14.40;99.90;;;;;;5066627;28;20497;-67
2022/05/26 01:01:31;;;;;;;29.10;8.27;;;14.40;99.90;;;;;;5070185;28;20044;-67
2022/05/26 01:04:01;;;;;;;31.02;8.02;;;14.30;99.90;;;;;;5068529;28;20093;-68
2022/05/26 01:06:38;;;;;;;27.75;7.78;;;14.30;99.90;;;;;;5070523;28;20051;-68
2022/05/26 01:09:05;;;;;;;29.77;7.47;;;14.40;99.90;;;;;;5070301;28;20075;-68
2022/05/26 01:11:36;;;;;;;32.05;8.35;;;14.40;99.90;;;;;;5070748;28;20044;-68
2022/05/26 01:14:18;;;;;;;27.98;7.65;;;15.30;99.90;;;;;;5061077;28;20052;-68
2022/05/26 01:17:02;;;;;;;26.83;7.10;;;14.50;99.90;;;;;;5059230;28;20572;-68
2022/05/26 01:19:58;;;;;;;28.95;7.57;;;14.40;99.90;;;;;;5069750;28;20395;-68
2022/05/26 01:22:56;;;;;;;25.90;7.50;;;14.40;99.90;;;;;;5068934;28;20507;-68
2022/05/26 01:26:05;;;;;;;29.83;7.50;;;14.40;99.90;;;;;;5070402;28;20433;-68
2022/05/26 01:29:04;;;;;;;32.67;7.93;;;14.40;99.90;;;;;;5057827;28;20106;-68
2022/05/26 01:31:49;;;;;;;28.63;6.65;;;14.30;99.90;;;;;;5058844;28;20055;-68
2022/05/26 01:34:46;;;;;;;29.33;6.50;;;14.30;99.90;;;;;;5053285;28;20040;-67
2022/05/26 01:37:26;;;;;;;28.42;7.07;;;14.40;99.90;;;;;;5072674;28;20051;-68
2022/05/26 01:40:01;;;;;;;30.20;6.57;;;14.30;99.90;;;;;;5071042;28;20052;-68
2022/05/26 01:43:07;;;;;;;28.60;7.07;;;14.40;99.90;;;;;;5068471;28;20156;-67
2022/05/26 01:46:00;;;;;;;29.02;6.75;;;14.40;99.90;;;;;;5069688;28;20044;-66
2022/05/26 01:48:33;;;;;;;22.02;5.57;;;14.40;99.90;;;;;;5068758;28;20127;-67
2022/05/26 01:51:11;;;;;;;24.58;6.15;;;14.40;99.90;;;;;;5070926;28;20472;-66
2022/05/26 01:53:42;;;;;;;28.00;6.30;;;14.40;99.90;;;;;;5069868;28;20493;-67
2022/05/26 01:56:31;;;;;;;26.88;5.97;;;15.30;99.90;;;;;;5069103;28;20089;-67
2022/05/26 01:59:07;;;;;;;27.08;6.32;;;14.40;99.90;;;;;;5066140;28;20072;-67
2022/05/26 02:01:38;;;;;;;32.88;7.05;;;14.30;99.90;;;;;;5068978;28;20070;-67
2022/05/26 02:04:10;;;;;;;29.95;7.88;;;14.30;99.90;;;;;;5070070;28;20063;-67
2022/05/26 02:06:43;;;;;;;33.55;7.50;;;14.40;99.90;;;;;;5070151;28;20362;-67
2022/05/26 02:09:23;;;;;;;29.25;6.93;;;14.30;99.90;;;;;;5069131;28;20044;-67
2022/05/26 02:12:11;;;;;;;35.17;6.68;;;14.40;99.90;;;;;;5068722;28;20098;-67
2022/05/26 02:14:47;;;;;;;31.40;6.57;;;14.30;99.90;;;;;;5067449;28;20063;-67
2022/05/26 02:17:25;;;;;;;25.63;6.05;;;14.30;99.90;;;;;;5059957;28;20053;-67
2022/05/26 02:19:56;;;;;;;32.30;7.13;;;14.30;99.90;;;;;;5062336;28;20091;-67
2022/05/26 02:22:25;;;;;;;31.02;7.70;;;14.20;99.90;;;;;;5068789;28;20412;-67
2022/05/26 02:25:05;;;;;;;37.80;7.20;;;14.30;99.90;;;;;;5069772;28;20067;-66
2022/05/26 02:27:33;;;;;;;33.08;7.10;;;14.20;99.90;;;;;;5068499;28;20098;-67
2022/05/26 02:30:02;;;;;;;35.40;7.18;;;14.20;99.90;;;;;;5066534;28;20070;-68
2022/05/26 02:32:32;;;;;;;28.92;7.45;;;14.30;99.90;;;;;;5067960;28;20036;-68
2022/05/26 02:35:00;;;;;;;31.45;7.05;;;14.80;99.90;;;;;;5071390;28;20393;-68
2022/05/26 02:37:28;;;;;;;27.23;6.45;;;14.20;99.90;;;;;;5068695;28;20131;-67
2022/05/26 02:39:54;;;;;;;29.20;6.47;;;14.20;99.90;;;;;;5069100;28;20142;-68
2022/05/26 02:42:21;;;;;;;26.30;6.75;;;14.30;99.90;;;;;;5068450;28;20509;-68
2022/05/26 02:44:47;;;;;;;31.33;7.07;;;14.20;99.90;;;;;;5065654;28;20041;-68
2022/05/26 02:47:27;;;;;;;30.52;6.35;;;14.20;99.90;;;;;;5068775;28;20048;-68
2022/05/26 02:50:15;;;;;;;33.50;7.05;;;14.20;99.90;;;;;;5067725;28;20044;-68
2022/05/26 02:53:10;;;;;;;33.15;7.57;;;14.20;99.90;;;;;;5067811;28;20445;-68
2022/05/26 02:55:45;;;;;;;39.88;7.40;;;14.10;99.90;;;;;;5068012;28;20053;-68
2022/05/26 02:58:13;;;;;;;27.03;6.47;;;14.10;99.90;;;;;;5065442;28;20049;-67
2022/05/26 03:00:58;;;;;;;31.40;6.88;;;14.10;99.90;;;;;;5068372;28;20306;-67
2022/05/26 03:03:35;;;;;;;30.13;6.63;;;14.00;99.90;;;;;;5070637;28;20040;-68
2022/05/26 03:06:26;;;;;;;29.65;7.18;;;13.90;99.90;;;;;;5069869;28;20076;-68
2022/05/26 03:08:53;;;;;;;28.27;6.63;;;13.90;99.90;;;;;;5068502;28;20101;-68
2022/05/26 03:11:24;;;;;;;28.95;6.63;;;13.90;99.90;;;;;;5068864;28;20044;-68
2022/05/26 03:13:50;;;;;;;37.35;7.18;;;14.00;99.90;;;;;;5062665;28;20047;-68
2022/05/26 03:16:17;;;;;;;29.98;7.20;;;13.80;99.90;;;;;;5049643;28;20040;-68
2022/05/26 03:18:42;;;;;;;29.48;6.97;;;13.80;99.90;;;;;;5054060;28;20047;-68
2022/05/26 03:21:09;;;;;;;28.70;7.45;;;13.80;99.90;;;;;;5067543;28;20044;-68
2022/05/26 03:23:36;;;;;;;30.40;7.35;;;13.90;99.90;;;;;;5067650;28;20050;-68
2022/05/26 03:26:04;;;;;;;33.78;7.65;;;13.90;99.90;;;;;;5066832;28;20802;-68
2022/05/26 03:28:30;;;;;;;28.50;7.07;;;13.90;99.90;;;;;;5064717;28;20087;-67
2022/05/26 03:30:56;;;;;;;30.27;6.68;;;13.90;99.90;;;;;;5068791;28;20032;-67
2022/05/26 03:33:22;;;;;;;27.05;6.45;;;13.90;99.90;;;;;;5065666;28;20094;-67
2022/05/26 03:41:21;;;;;;;23.52;5.72;;;14.00;99.90;;;;;;5067437;28;20419;-67
2022/05/26 03:43:59;;;;;;;21.30;5.50;;;13.80;99.90;;;;;;5065470;28;20178;-67
2022/05/26 03:46:26;;;;;;;25.50;5.47;;;13.80;99.90;;;;;;5067807;28;20059;-68
2022/05/26 03:48:51;;;;;;;22.35;5.38;;;13.70;99.90;;;;;;5066284;28;20044;-68
2022/05/26 03:51:17;;;;;;;26.63;4.97;;;14.90;99.90;;;;;;5068334;28;20049;-68
2022/05/26 03:53:42;;;;;;;21.90;4.97;;;13.60;99.90;;;;;;5066228;28;20044;-68
2022/05/26 03:56:08;;;;;;;17.52;4.40;;;13.60;99.90;;;;;;5067575;28;20040;-68
2022/05/26 03:58:35;;;;;;;19.95;4.65;;;13.60;99.90;;;;;;5065663;28;20187;-68
2022/05/26 04:01:06;;;;;;;16.67;3.92;;;13.60;99.90;;;;;;5068170;28;20158;-68
2022/05/26 04:03:32;;;;;;;18.23;4.05;;;13.50;99.90;;;;;;5062068;28;20077;-68
2022/05/26 04:05:57;;;;;;;15.98;3.60;;;13.60;99.90;;;;;;5068380;28;20118;-68
2022/05/26 04:08:23;;;;;;;15.63;3.83;;;13.60;99.90;;;;;;5051542;28;20481;-68
2022/05/26 04:10:49;;;;;;;15.75;3.40;;;13.00;99.90;;;;;;5072106;28;20040;-68
2022/05/26 04:13:15;;;;;;;12.75;4.13;;;13.60;99.90;;;;;;5070448;28;20074;-68
2022/05/26 04:15:40;;;;;;;16.10;3.20;;;13.60;99.90;;;;;;5071086;28;20045;-68
2022/05/26 04:18:06;;;;;;;10.55;2.78;;;13.60;99.90;;;;;;5072087;28;20132;-68
2022/05/26 04:20:32;;;;;;;9.90;2.78;;;13.60;99.90;;;;;;5071769;28;20523;-68
2022/05/26 04:22:57;;;;;;;11.25;2.92;;;13.70;99.90;;;;;;5071162;28;20079;-70
2022/05/26 04:25:25;;;;;;;14.40;3.05;;;13.70;99.90;;;;;;5070196;28;20504;-68
2022/05/26 04:27:53;;;;;;;11.25;2.83;;;13.70;99.90;;;;;;5069361;28;20117;-68
2022/05/26 04:30:20;;;;;;;15.52;2.60;;;13.70;99.90;;;;;;5070292;28;20043;-69
2022/05/26 04:32:45;;;;;;;11.48;2.60;;;13.70;99.90;;;;;;5072324;28;20439;-67
2022/05/26 04:35:11;;;;;;;8.07;2.65;;;13.80;99.90;;;;;;5070954;28;20051;-67
2022/05/26 04:37:38;;;;;;;10.73;2.53;;;13.80;99.90;;;;;;5070504;28;20044;-67
2022/05/26 04:40:04;;;;;;;8.93;2.20;;;13.80;99.90;;;;;;5071422;28;20087;-68
2022/05/26 04:42:30;;;;;;;9.25;2.95;;;13.70;99.90;;;;;;5070094;28;20131;-68
2022/05/26 04:44:57;;;;;;;10.45;2.63;;;13.80;99.90;;;;;;5071477;28;20131;-68
2022/05/26 04:47:22;;;;;;;12.98;2.50;;;13.80;99.90;;;;;;5073279;28;20051;-68
2022/05/26 04:49:48;;;;;;;10.10;2.05;;;13.80;99.90;;;;;;5073569;28;20473;-67
2022/05/26 04:52:17;;;;;;;12.38;2.50;;;14.60;99.90;;;;;;5069997;28;20171;-67
2022/05/26 04:54:44;;;;;;;8.73;2.10;;;13.80;99.90;;;;;;5054777;28;20071;-68
2022/05/26 04:57:11;;;;;;;8.95;2.65;;;13.80;99.90;;;;;;5050128;28;20044;-68
2022/05/26 04:59:37;;;;;;;7.25;2.15;;;13.80;99.90;;;;;;5049934;28;20106;-67
2022/05/26 05:02:04;;;;;;;7.32;2.25;;;13.80;99.90;;;;;;5058352;28;20048;-68
2022/05/26 05:04:30;;;;;;;11.07;2.30;;;13.80;99.90;;;;;;5068461;28;20060;-67
2022/05/26 05:06:56;;;;;;;10.70;2.22;;;13.80;99.90;;;;;;5070183;28;20047;-68
2022/05/26 05:09:23;;;;;;;11.98;2.33;;;13.80;99.90;;;;;;5069662;28;20049;-67
2022/05/26 05:11:49;;;;;;;12.82;2.30;;;13.80;99.90;;;;;;5070869;28;20101;-68
2022/05/26 05:14:16;;;;;;;8.25;2.17;;;13.90;99.90;;;;;;5059404;28;20044;-68
2022/05/26 05:16:43;;;;;;;8.68;2.42;;;13.80;99.90;;;;;;5055282;28;20044;-68
2022/05/26 05:19:15;;;;;;;9.23;2.22;;;14.00;99.90;;;;;;5071525;28;20044;-68
2022/05/26 05:21:47;;;;;;;10.00;2.72;;;13.80;99.90;;;;;;5070420;28;20044;-68
2022/05/26 05:24:27;;;;;;;7.55;2.40;;;13.90;99.90;;;;;;5069610;28;20052;-68
2022/05/26 05:26:56;;;;;;;11.80;2.45;;;13.90;99.90;;;;;;5069868;28;20442;-68
2022/05/26 05:29:25;;;;;;;9.60;2.00;;;13.90;99.90;;;;;;5068244;28;20070;-67
2022/05/26 05:31:56;;;;;;;10.27;2.10;;;13.90;99.90;;;;;;5070639;28;20051;-68
2022/05/26 05:34:34;;;;;;;6.32;1.88;;;14.40;99.90;;;;;;5067577;28;20040;-68
2022/05/26 05:37:00;;;;;;;7.22;2.10;;;14.00;99.90;;;;;;5069602;28;20127;-67
2022/05/26 05:39:26;;;;;;;8.05;2.20;;;14.00;99.90;;;;;;5069020;28;20186;-68
2022/05/26 05:41:54;;;;;;;8.07;2.30;;;14.10;99.90;;;;;;5071030;28;20044;-67
2022/05/26 05:44:20;;;;;;;8.50;2.00;;;14.10;99.90;;;;;;5066649;28;20044;-69
2022/05/26 05:46:57;;;;;;;10.20;2.15;;;14.10;99.90;;;;;;5068083;28;20445;-68
2022/05/26 05:49:28;;;;;;;8.90;1.95;;;14.10;99.90;;;;;;5069166;28;20055;-69
2022/05/26 05:51:55;;;;;;;10.77;1.98;;;14.10;99.90;;;;;;5070898;28;20036;-69
2022/05/26 05:54:21;;;;;;;9.25;1.80;;;14.20;99.90;;;;;;5067149;28;20052;-69
2022/05/26 05:56:47;;;;;;;8.05;2.03;;;14.20;99.90;;;;;;5073103;28;20170;-69
2022/05/26 05:59:13;;;;;;;8.88;2.30;;;14.30;99.90;;;;;;5068206;28;20071;-69
2022/05/26 06:01:39;;;;;;;5.53;1.95;;;14.30;99.90;;;;;;5069861;28;20032;-69
2022/05/26 06:04:05;;;;;;;6.65;2.00;;;14.40;99.90;;;;;;5069376;28;20613;-70
2022/05/26 06:06:40;;;;;;;9.98;2.00;;;14.40;99.90;;;;;;5071128;28;20489;-69
2022/05/26 06:09:08;;;;;;;11.23;2.20;;;14.60;99.90;;;;;;5070833;28;20052;-70
2022/05/26 06:11:33;;;;;;;8.45;2.08;;;14.50;99.90;;;;;;5071336;28;20045;-70
2022/05/26 06:14:00;;;;;;;5.25;1.70;;;15.50;99.90;;;;;;5068005;28;20046;-70
2022/05/26 06:16:27;;;;;;;8.27;1.98;;;14.50;99.90;;;;;;5068197;28;20055;-69
2022/05/26 06:18:53;;;;;;;11.48;1.95;;;14.60;99.90;;;;;;5069998;28;20044;-69
2022/05/26 06:21:20;;;;;;;8.07;2.10;;;14.70;99.90;;;;;;5069631;28;20435;-70
2022/05/26 06:23:46;;;;;;;7.95;1.98;;;15.90;99.90;;;;;;5066904;28;20103;-69
2022/05/26 06:26:11;;;;;;;8.75;2.50;;;15.30;99.90;;;;;;5068123;28;20045;-69
2022/05/26 06:31:23;;;;;;;8.05;1.92;;;14.90;99.90;;;;;;5068719;28;20291;-70
2022/05/26 06:39:18;;;;;;;7.97;1.90;;;15.30;99.90;;;;;;5068114;28;20049;-69
2022/05/26 06:44:28;;;;;;;7.70;2.00;;;15.40;99.90;;;;;;5067265;28;20052;-70
2022/05/26 06:46:53;;;;;;;7.70;1.50;;;15.60;99.90;;;;;;5068269;28;20077;-69
2022/05/26 06:49:19;;;;;;;8.00;2.00;;;15.80;99.90;;;;;;5055166;28;20532;-69
2022/05/26 06:51:45;;;;;;;9.75;1.70;;;15.90;99.90;;;;;;5050631;28;20072;-70
2022/05/26 06:54:11;;;;;;;5.70;1.77;;;16.10;99.90;;;;;;5058717;28;20044;-69
2022/05/26 06:56:37;;;;;;;11.93;2.10;;;16.10;99.90;;;;;;5069652;28;20044;-69
2022/05/26 06:59:02;;;;;;;6.93;1.90;;;16.20;99.90;;;;;;5066336;28;20060;-69
2022/05/26 07:01:28;;;;;;;5.85;1.90;;;16.60;99.90;;;;;;5067269;28;20115;-69
2022/05/26 07:03:54;;;;;;;6.75;2.00;;;16.20;99.90;;;;;;5066820;28;20498;-70
2022/05/26 07:06:23;;;;;;;8.75;1.77;;;16.20;99.90;;;;;;5067933;28;20507;-69
2022/05/26 07:08:48;;;;;;;11.63;1.90;;;16.20;99.90;;;;;;5070069;28;20048;-70
2022/05/26 07:11:16;;;;;;;6.28;1.60;;;16.20;99.90;;;;;;5067624;28;20129;-69
2022/05/26 07:13:42;;;;;;;6.80;1.70;;;16.50;99.90;;;;;;5065318;28;20134;-69
2022/05/26 07:16:10;;;;;;;6.43;1.80;;;16.40;99.90;;;;;;5067856;28;20401;-71
2022/05/26 07:18:36;;;;;;;8.38;2.25;;;16.50;99.90;;;;;;5065862;28;20045;-69
2022/05/26 07:21:07;;;;;;;6.88;1.90;;;17.50;99.90;;;;;;5074438;28;20121;-69
2022/05/26 07:23:34;;;;;;;7.53;2.00;;;16.90;99.90;;;;;;5064234;28;20121;-70
2022/05/26 07:26:03;;;;;;;4.07;1.55;;;17.00;99.90;;;;;;5066483;28;20043;-70
2022/05/26 07:28:29;;;;;;;7.65;2.00;;;17.60;99.90;;;;;;5060901;28;20082;-69
2022/05/26 07:30:55;;;;;;;9.10;2.13;;;17.00;99.90;;;;;;5067300;28;20048;-69
2022/05/26 07:33:20;;;;;;;7.40;1.92;;;16.90;99.90;;;;;;5065830;28;20169;-69
2022/05/26 07:35:46;;;;;;;7.95;2.08;;;16.40;99.90;;;;;;5067368;28;20493;-69
2022/05/26 07:43:46;;;;;;;5.03;1.60;;;17.20;99.90;;;;;;5046375;28;20397;-69
2022/05/26 07:46:12;;;;;;;6.65;1.90;;;17.40;99.90;;;;;;5047523;28;20092;-69
2022/05/26 07:48:38;;;;;;;8.70;1.73;;;17.40;99.90;;;;;;5047919;28;20567;-69
2022/05/26 07:51:03;;;;;;;6.32;1.65;;;17.50;99.90;;;;;;5048939;28;20041;-69
2022/05/26 07:53:29;;;;;;;8.02;1.83;;;17.70;99.90;;;;;;5047595;28;20485;-70
2022/05/26 07:55:55;;;;;;;10.15;2.25;;;17.60;99.90;;;;;;5051148;28;20041;-70
2022/05/26 07:58:20;;;;;;;6.95;1.70;;;18.60;99.90;;;;;;5065275;28;20040;-70
2022/05/26 08:00:46;;;;;;;6.30;1.55;;;17.80;99.90;;;;;;5068085;28;20124;-69
2022/05/26 08:03:12;;;;;;;7.18;1.73;;;18.20;99.90;;;;;;5066729;28;20508;-69
2022/05/26 08:05:39;;;;;;;8.93;2.17;;;17.60;99.90;;;;;;5066283;28;20412;-70
2022/05/26 08:08:05;;;;;;;7.18;1.70;;;17.60;99.90;;;;;;5059507;28;20059;-69
2022/05/26 08:10:31;;;;;;;6.78;1.65;;;17.60;99.90;;;;;;5067722;28;20824;-69
2022/05/26 08:12:57;;;;;;;6.90;1.70;;;17.70;99.90;;;;;;5066537;28;20071;-69
2022/05/26 08:15:23;;;;;;;9.88;1.70;;;17.80;99.90;;;;;;5061253;28;20546;-68
2022/05/26 08:17:48;;;;;;;8.48;1.60;;;17.90;99.90;;;;;;5047870;28;20439;-70
2022/05/26 08:20:14;;;;;;;7.97;1.60;;;17.90;99.90;;;;;;5046417;28;20045;-67
2022/05/26 08:22:40;;;;;;;5.82;1.50;;;17.90;99.90;;;;;;5050684;28;20045;-68
2022/05/26 08:25:06;;;;;;;6.63;1.63;;;18.00;99.90;;;;;;5067137;28;20040;-69
2022/05/26 08:27:32;;;;;;;7.15;1.60;;;18.20;99.90;;;;;;5067844;28;20048;-68
2022/05/26 08:29:59;;;;;;;6.32;1.70;;;18.30;99.90;;;;;;5078230;28;20063;-68
2022/05/26 08:32:28;;;;;;;11.07;2.10;;;18.40;99.90;;;;;;5066260;28;20345;-70
2022/05/26 08:35:03;;;;;;;9.73;1.88;;;18.50;99.90;;;;;;5066666;28;20044;-68
2022/05/26 08:37:29;;;;;;;6.25;1.50;;;18.70;99.90;;;;;;5066592;28;20032;-69
2022/05/26 08:39:54;;;;;;;7.22;1.73;;;18.80;99.90;;;;;;5066366;28;20072;-69
2022/05/26 08:42:25;;;;;;;8.75;1.70;;;19.00;99.90;;;;;;5064005;28;20113;-69
2022/05/26 08:44:54;;;;;;;5.65;1.45;;;19.00;99.90;;;;;;5066316;28;20068;-69
2022/05/26 08:47:26;;;;;;;5.90;1.80;;;19.10;99.90;;;;;;5055507;28;20044;-69
2022/05/26 08:50:11;;;;;;;7.28;1.40;;;19.10;99.90;;;;;;5068623;28;20048;-69
2022/05/26 08:52:43;;;;;;;8.38;1.80;;;19.00;99.90;;;;;;5070792;28;20045;-69
2022/05/26 08:55:19;;;;;;;8.65;1.80;;;19.00;99.90;;;;;;5069992;28;20147;-68
2022/05/26 08:57:53;;;;;;;5.43;1.60;;;19.00;99.90;;;;;;5070464;28;20040;-68
2022/05/26 09:00:21;;;;;;;7.03;1.60;;;18.90;99.90;;;;;;5069679;28;20088;-68
2022/05/26 09:02:53;;;;;;;6.63;1.50;;;18.90;99.90;;;;;;5070530;28;20041;-68
2022/05/26 09:05:20;;;;;;;4.90;1.45;;;19.00;99.90;;;;;;5069086;28;20037;-68
2022/05/26 09:13:53;;;;;;;5.40;1.33;;;19.00;99.90;;;;;;5047408;28;20490;-69
2022/05/26 09:16:20;;;;;;;4.63;1.20;;;19.10;99.90;;;;;;5062808;28;20060;-73
2022/05/26 09:19:08;;;;;;;6.05;1.58;;;19.10;99.90;;;;;;5068626;28;20098;-73
2022/05/26 09:21:37;;;;;;;4.75;1.38;;;19.00;99.90;;;;;;5067565;28;20423;-73
2022/05/26 09:24:33;;;;;;;4.97;1.42;;;18.90;99.90;;;;;;5064352;28;20048;-73
2022/05/26 09:27:27;;;;;;;7.55;1.83;;;18.90;99.90;;;;;;5067389;28;20468;-72
2022/05/26 09:29:53;;;;;;;5.03;1.50;;;18.90;99.90;;;;;;5064260;28;20049;-72
2022/05/26 09:32:28;;;;;;;6.90;1.50;;;18.90;99.90;;;;;;5066793;28;20119;-72
2022/05/26 09:35:12;;;;;;;5.57;1.40;;;18.90;99.90;;;;;;5065803;28;20079;-72
2022/05/26 09:37:43;;;;;;;6.60;1.50;;;18.90;99.90;;;;;;5059153;28;20124;-70
2022/05/26 09:40:34;;;;;;;6.20;1.88;;;19.00;99.90;;;;;;5064360;28;20488;-71
2022/05/26 09:43:22;;;;;;;7.57;1.48;;;19.10;99.90;;;;;;5057304;28;20037;-71
2022/05/26 09:45:53;;;;;;;6.50;1.38;;;19.30;99.90;;;;;;5067349;28;20045;-71
2022/05/26 09:48:27;;;;;;;7.45;1.52;;;19.00;99.90;;;;;;5067857;28;20540;-71
2022/05/26 09:51:10;;;;;;;6.28;1.42;;;18.90;99.90;;;;;;5069672;28;20065;-71
2022/05/26 09:53:39;;;;;;;4.53;1.30;;;19.00;99.90;;;;;;5069680;28;20040;-71
2022/05/26 09:56:05;;;;;;;5.43;1.20;;;19.00;99.90;;;;;;5068500;28;20049;-71
2022/05/26 09:58:43;;;;;;;5.25;1.40;;;19.00;99.90;;;;;;5066200;28;20075;-70
2022/05/26 10:01:20;;;;;;;9.32;1.60;;;19.40;99.90;;;;;;5069262;28;20132;-71
2022/05/26 10:03:57;;;;;;;8.95;1.60;;;19.70;99.90;;;;;;5068924;28;20130;-70
2022/05/26 10:06:35;;;;;;;4.25;1.17;;;19.90;99.90;;;;;;5066386;28;20548;-70
2022/05/26 10:09:20;;;;;;;5.43;1.48;;;20.20;99.90;;;;;;5065751;28;20053;-70
2022/05/26 10:12:16;;;;;;;4.32;1.10;;;20.40;99.90;;;;;;5065051;28;20174;-70
2022/05/26 10:14:44;;;;;;;;;;;20.40;99.90;;;;;;5066612;28;20044;-70
2022/05/26 10:17:59;;;;;;;4.72;1.08;;;20.60;99.90;;;;;;5068320;28;19967;-70
2022/05/26 10:20:46;;;;;;;5.63;1.30;;;20.60;99.70;;;;;;5025461;28;20044;-71
2022/05/26 10:23:29;;;;;;;6.10;1.50;;;20.60;99.90;;;;;;5043759;28;20120;-71
2022/05/26 10:26:21;;;;;;;9.07;1.60;;;20.70;99.90;;;;;;5048525;28;20465;-70
2022/05/26 10:29:06;;;;;;;6.47;1.52;;;20.40;99.90;;;;;;5047315;28;20103;-71
2022/05/26 10:31:57;;;;;;;4.13;1.35;;;20.50;99.90;;;;;;5052044;28;20436;-70
2022/05/26 10:34:47;;;;;;;4.13;1.40;;;21.00;99.90;;;;;;5050316;28;20041;-70
2022/05/26 10:37:34;;;;;;;5.40;1.42;;;21.50;99.90;;;;;;5049404;28;20045;-71
2022/05/26 10:40:31;;;;;;;4.60;1.38;;;22.30;99.00;;;;;;5080234;28;20323;-74
2022/05/26 10:43:06;;;;;;;4.55;1.25;;;22.90;97.80;;;;;;5068489;28;20040;-72
2022/05/26 10:45:40;;;;;;;4.88;1.55;;;22.90;97.80;;;;;;5066980;28;20066;-72
2022/05/26 10:48:07;;;;;;;5.20;1.55;;;23.20;97.40;;;;;;5067152;28;20142;-72
2022/05/26 10:50:38;;;;;;;7.13;1.63;;;23.80;96.70;;;;;;5049818;28;20390;-72
2022/05/26 10:53:36;;;;;;;5.07;1.38;;;23.80;96.90;;;;;;5067476;28;20037;-71
2022/05/26 10:56:20;;;;;;;6.38;1.40;;;25.50;96.20;;;;;;5064819;28;20041;-71
2022/05/26 10:58:56;;;;;;;5.75;1.40;;;27.80;93.50;;;;;;5063800;28;20064;-72
2022/05/26 11:01:31;;;;;;;4.07;1.17;;;29.30;91.50;;;;;;5064976;28;20122;-71
2022/05/26 11:04:08;;;;;;;6.63;1.52;;;29.40;87.50;;;;;;5067438;28;20582;-72
2022/05/26 11:06:37;;;;;;;6.80;1.88;;;28.70;87.40;;;;;;5068499;28;20115;-72
2022/05/26 11:09:16;;;;;;;6.68;1.70;;;28.50;87.60;;;;;;5067208;28;20071;-72
2022/05/26 11:11:49;;;;;;;4.80;1.60;;;28.20;87.30;;;;;;5066921;28;20055;-71
2022/05/26 11:17:54;;;;;;;4.72;1.40;;;30.20;82.60;;;;;;5034066;28;20041;-71
2022/05/26 11:20:36;;;;;;;5.43;1.20;;;30.10;80.00;;;;;;5063190;28;20056;-71
2022/05/26 11:23:03;;;;;;;5.50;1.23;;;29.40;77.70;;;;;;5065546;28;20126;-71
2022/05/26 11:25:37;;;;;;;4.35;1.10;;;29.30;79.00;;;;;;5050375;28;20485;-72
2022/05/26 11:28:15;;;;;;;6.55;1.42;;;29.10;77.70;;;;;;5066940;28;20070;-72
2022/05/26 11:36:52;;;;;;;4.20;1.20;;;28.20;79.30;;;;;;5067733;28;20422;-71
2022/05/26 11:39:40;;;;;;;5.05;1.30;;;27.50;80.20;;;;;;5049370;28;20056;-72
2022/05/26 11:42:13;;;;;;;4.80;1.20;;;26.60;81.60;;;;;;5048353;28;20440;-72
2022/05/26 11:44:53;;;;;;;6.28;1.60;;;25.60;83.10;;;;;;5046069;28;20048;-72
2022/05/26 11:47:31;;;;;;;8.93;1.60;;;24.80;86.70;;;;;;5048074;28;20048;-72
2022/05/26 11:49:56;;;;;;;6.88;1.35;;;24.40;89.90;;;;;;5048080;28;20106;-72
2022/05/26 11:52:23;;;;;;;8.00;1.92;;;24.20;91.00;;;;;;5046803;28;20462;-70
2022/05/26 11:55:01;;;;;;;6.80;1.50;;;23.70;92.30;;;;;;5048178;28;20052;-70
2022/05/26 11:57:35;;;;;;;4.78;1.63;;;23.60;92.80;;;;;;5046594;28;20079;-70
2022/05/26 12:00:15;;;;;;;5.90;1.70;;;23.40;93.90;;;;;;5046660;28;20498;-70
2022/05/26 12:02:42;;;;;;;5.50;1.50;;;23.70;93.50;;;;;;5046665;28;20123;-70
2022/05/26 12:05:29;;;;;;;5.07;1.40;;;23.70;93.40;;;;;;5050969;28;20045;-70
2022/05/26 12:08:01;;;;;;;6.35;1.67;;;23.40;93.20;;;;;;5049328;28;20063;-70
2022/05/26 12:10:29;;;;;;;6.18;1.60;;;23.20;92.90;;;;;;5048395;28;20045;-69
2022/05/26 12:13:19;;;;;;;9.00;1.70;;;22.90;93.90;;;;;;5061747;28;20045;-69
2022/05/26 12:16:05;;;;;;;4.90;1.45;;;22.60;94.90;;;;;;5047408;28;20049;-70
2022/05/26 12:18:52;;;;;;;5.60;1.50;;;22.70;94.70;;;;;;5046656;28;20049;-70
2022/05/26 12:21:41;;;;;;;3.65;1.20;;;22.70;95.60;;;;;;5047528;28;20041;-68
2022/05/26 12:24:32;;;;;;;5.85;1.42;;;22.60;94.70;;;;;;5051529;28;20041;-69
2022/05/26 12:26:59;;;;;;;5.28;1.40;;;22.20;96.20;;;;;;5051387;28;20045;-69
2022/05/26 12:30:01;;;;;;;5.97;1.60;;;22.20;96.00;;;;;;5049735;28;20402;-70
2022/05/26 12:32:36;;;;;;;7.93;1.80;;;22.10;96.70;;;;;;5052710;28;20052;-69
2022/05/26 12:35:07;;;;;;;;;;;21.60;97.80;;;;;;5058560;28;20507;-68
2022/05/26 12:37:56;;;;;;;5.53;1.58;;;21.30;99.50;;;;;;5070306;28;20000;-68
2022/05/26 12:40:43;;;;;;;7.35;2.05;;;21.20;99.90;;;;;;5067643;28;20131;-68
2022/05/26 12:43:37;;;;;;;4.60;1.40;;;21.00;99.90;;;;;;5068272;28;20120;-69
2022/05/26 12:46:23;;;;;;;7.63;1.77;;;21.00;99.90;;;;;;5067688;28;20459;-68
2022/05/26 12:48:54;;;;;;;;;;;20.60;99.90;;;;;;5076295;28;20131;-69
2022/05/26 12:51:20;;;;;;;7.80;1.83;;;21.20;99.90;;;;;;5069837;28;19997;-68
2022/05/26 12:53:54;;;;;;;5.45;1.73;;;21.10;99.90;;;;;;5068663;28;20036;-68
2022/05/26 12:56:45;;;;;;;5.43;1.70;;;21.10;99.90;;;;;;5069461;28;20110;-68
2022/05/26 12:59:15;;;;;;;7.07;1.85;;;21.00;99.90;;;;;;5069177;28;20098;-68
2022/05/26 13:01:41;;;;;;;5.05;1.50;;;20.90;99.90;;;;;;5070834;28;20049;-68
2022/05/26 13:04:10;;;;;;;4.82;1.42;;;20.70;99.90;;;;;;5072728;28;20044;-67
2022/05/26 13:06:41;;;;;;;7.18;1.60;;;20.50;99.90;;;;;;5070215;28;20128;-68
2022/05/26 13:09:14;;;;;;;6.25;1.63;;;20.50;99.90;;;;;;5069616;28;20049;-68
2022/05/26 13:11:48;;;;;;;5.70;1.95;;;20.60;99.90;;;;;;5070867;28;20036;-68
2022/05/26 13:14:23;;;;;;;5.95;1.73;;;20.60;99.90;;;;;;5061141;28;20405;-68
2022/05/26 13:17:00;;;;;;;8.25;1.75;;;20.30;99.90;;;;;;5049962;28;20393;-68
2022/05/26 13:19:26;;;;;;;10.25;2.10;;;20.00;99.90;;;;;;5050680;28;20049;-67
2022/05/26 13:21:54;;;;;;;7.63;1.92;;;20.00;99.90;;;;;;5049508;28;20114;-68
2022/05/26 13:24:29;;;;;;;6.35;1.95;;;20.10;99.90;;;;;;5048949;28;20053;-67
2022/05/26 13:27:08;;;;;;;5.90;1.73;;;20.20;99.90;;;;;;5050649;28;20392;-67
2022/05/26 13:29:35;;;;;;;7.50;1.95;;;20.20;99.90;;;;;;5047811;28;20064;-68
2022/05/26 13:34:51;;;;;;;6.70;1.50;;;20.30;99.90;;;;;;5050134;28;20140;-68
2022/05/26 13:37:25;;;;;;;5.82;1.60;;;20.20;99.90;;;;;;5049356;28;20489;-68
2022/05/26 13:40:17;;;;;;;6.65;1.77;;;20.30;99.90;;;;;;5050720;28;20037;-69
2022/05/26 13:42:46;;;;;;;7.88;1.85;;;20.40;99.90;;;;;;5049101;28;20094;-68
2022/05/26 13:45:31;;;;;;;5.00;1.50;;;20.30;99.90;;;;;;5047369;28;20053;-67
2022/05/26 13:48:28;;;;;;;6.07;2.10;;;20.10;99.90;;;;;;5049743;28;20123;-68
2022/05/26 13:50:57;;;;;;;7.68;1.85;;;19.90;99.90;;;;;;5049685;28;20485;-67
2022/05/26 13:53:25;;;;;;;7.93;1.65;;;19.90;99.90;;;;;;5049425;28;20033;-68